createdAt,value
2018-09-20T00:01:58.087Z,76.99
2018-09-20T00:04:27.154Z,76.81
2018-09-20T00:06:56.249Z,76.52
2018-09-20T00:09:25.318Z,76.40
2018-09-20T00:11:54.381Z,76.53
2018-09-20T00:14:23.451Z,76.79
2018-09-20T00:16:52.533Z,76.57
2018-09-20T00:19:21.601Z,76.74
2018-09-20T00:21:51.413Z,76.32
2018-09-20T00:24:20.533Z,76.32
2018-09-20T00:26:49.576Z,76.19
2018-09-20T00:29:18.574Z,76.36
2018-09-20T00:31:47.609Z,76.66
2018-09-20T00:34:16.661Z,76.87
2018-09-20T00:36:45.741Z,76.95
2018-09-20T00:39:15.306Z,76.86
2018-09-20T00:41:44.762Z,76.87
2018-09-20T00:44:13.883Z,77.05
2018-09-20T00:46:43.122Z,77.19
2018-09-20T00:49:12.157Z,77.44
2018-09-20T00:51:41.251Z,77.18
2018-09-20T00:54:10.288Z,77.20
2018-09-20T00:56:39.332Z,77.22
2018-09-20T00:59:08.485Z,77.52
2018-09-20T01:01:37.545Z,77.84
2018-09-20T01:13:16.047Z,77.51
2018-09-20T01:15:45.211Z,77.56
2018-09-20T01:18:14.397Z,77.64
2018-09-20T01:20:43.491Z,77.87
2018-09-20T01:23:12.637Z,78.07
2018-09-20T01:25:41.683Z,78.20
2018-09-20T01:28:10.989Z,78.27
2018-09-20T01:30:40.045Z,78.24
2018-09-20T01:33:09.071Z,78.16
2018-09-20T01:35:38.119Z,78.10
2018-09-20T01:38:07.316Z,78.08
2018-09-20T01:40:43.446Z,78.23
2018-09-20T01:43:12.980Z,78.69
2018-09-20T01:45:42.084Z,78.69
2018-09-20T01:48:11.197Z,78.83
2018-09-20T01:50:40.240Z,79.15
2018-09-20T01:53:09.335Z,79.20
2018-09-20T01:55:39.153Z,79.04
2018-09-20T01:58:08.169Z,78.87
2018-09-20T02:00:37.295Z,78.59
2018-09-20T02:03:06.838Z,78.46
2018-09-20T02:05:36.037Z,78.54
2018-09-20T02:08:05.192Z,78.65
2018-09-20T02:10:34.324Z,78.33
2018-09-20T02:13:07.740Z,78.10
2018-09-20T02:15:36.786Z,78.14
2018-09-20T02:18:05.920Z,78.29
2018-09-20T02:20:35.051Z,78.36
2018-09-20T02:23:04.217Z,78.64
2018-09-20T02:25:33.309Z,78.47
2018-09-20T02:28:02.390Z,78.74
2018-09-20T02:30:31.633Z,78.76
2018-09-20T02:33:00.661Z,78.96
2018-09-20T02:35:29.688Z,78.87
2018-09-20T02:37:58.728Z,78.66
2018-09-20T02:40:27.849Z,78.88
2018-09-20T02:42:56.864Z,79.27
2018-09-20T02:45:25.929Z,79.13
2018-09-20T02:47:55.107Z,78.96
2018-09-20T02:50:24.222Z,79.00
2018-09-20T02:52:53.391Z,78.64
2018-09-20T02:55:22.461Z,78.50
2018-09-20T02:57:51.737Z,78.54
2018-09-20T03:00:20.834Z,78.62
2018-09-20T03:02:49.840Z,78.46
2018-09-20T03:05:18.864Z,78.37
2018-09-20T03:07:48.486Z,78.08
2018-09-20T03:10:17.544Z,78.10
2018-09-20T03:12:46.665Z,78.19
2018-09-20T03:15:15.711Z,78.21
2018-09-20T03:17:44.807Z,78.28
2018-09-20T03:20:13.854Z,78.49
2018-09-20T03:22:42.896Z,78.37
2018-09-20T03:25:11.893Z,78.41
2018-09-20T03:27:41.516Z,78.63
2018-09-20T03:30:10.678Z,78.62
2018-09-20T03:32:39.715Z,78.90
2018-09-20T03:35:08.800Z,78.96
2018-09-20T03:37:37.937Z,78.87
2018-09-20T03:40:07.176Z,78.67
2018-09-20T03:42:36.345Z,78.46
2018-09-20T03:45:05.463Z,78.28
2018-09-20T03:47:34.493Z,78.15
2018-09-20T03:50:03.591Z,78.22
2018-09-20T03:52:33.316Z,78.13
2018-09-20T03:55:02.355Z,78.16
2018-09-20T03:57:31.406Z,78.00
2018-09-20T04:00:00.400Z,77.95
2018-09-20T04:02:29.605Z,78.07
2018-09-20T04:04:58.644Z,77.80
2018-09-20T04:07:27.684Z,78.09
2018-09-20T04:09:56.782Z,78.19
2018-09-20T04:12:25.908Z,78.21
2018-09-20T04:14:54.968Z,78.41
2018-09-20T04:17:24.038Z,78.46
2018-09-20T04:19:53.313Z,78.64
2018-09-20T04:22:22.366Z,78.70
2018-09-20T04:24:51.533Z,78.69
2018-09-20T04:27:20.654Z,78.70
2018-09-20T04:29:49.749Z,78.43
2018-09-20T04:32:18.945Z,78.38
2018-09-20T04:34:48.013Z,78.97
2018-09-20T04:37:17.036Z,79.36
2018-09-20T04:39:46.105Z,79.41
2018-09-20T04:42:15.332Z,79.06
2018-09-20T04:44:44.417Z,78.93
2018-09-20T04:47:13.600Z,78.84
2018-09-20T04:49:42.627Z,78.61
2018-09-20T04:52:11.668Z,78.66
2018-09-20T04:54:40.934Z,78.52
2018-09-20T04:57:09.995Z,78.49
2018-09-20T04:59:39.581Z,78.74
2018-09-20T05:02:08.610Z,78.90
2018-09-20T05:04:37.911Z,79.10
2018-09-20T05:07:07.045Z,79.25
2018-09-20T05:09:36.118Z,79.23
2018-09-20T05:12:05.172Z,79.30
2018-09-20T05:14:34.208Z,79.43
2018-09-20T05:17:03.241Z,79.59
2018-09-20T05:19:32.449Z,79.49
2018-09-20T05:22:01.549Z,79.81
2018-09-20T05:24:30.793Z,79.79
2018-09-20T05:26:59.948Z,79.76
2018-09-20T05:29:29.035Z,79.59
2018-09-20T05:31:58.070Z,79.60
2018-09-20T05:34:27.128Z,80.02
2018-09-20T05:36:56.153Z,80.10
2018-09-20T05:39:25.214Z,80.15
2018-09-20T05:41:54.469Z,80.26
2018-09-20T05:44:23.650Z,80.33
2018-09-20T05:46:52.732Z,80.51
2018-09-20T05:49:21.994Z,80.47
2018-09-20T05:59:10.393Z,80.50
2018-09-20T06:01:39.596Z,80.25
2018-09-20T06:04:08.765Z,80.37
2018-09-20T06:06:38.005Z,80.33
2018-09-20T06:09:09.285Z,80.53
2018-09-20T06:11:38.669Z,80.53
2018-09-20T06:14:08.475Z,80.52
2018-09-20T06:16:39.042Z,80.55
2018-09-20T06:19:08.200Z,80.61
2018-09-20T06:21:37.408Z,80.67
2018-09-20T06:24:06.601Z,80.64
2018-09-20T06:26:35.660Z,80.72
2018-09-20T06:29:04.711Z,80.88
2018-09-20T06:31:33.744Z,80.93
2018-09-20T06:34:02.924Z,81.22
2018-09-20T06:36:32.246Z,81.20
2018-09-20T06:39:01.391Z,81.33
2018-09-20T06:41:30.535Z,81.15
2018-09-20T06:43:59.631Z,81.00
2018-09-20T06:46:28.829Z,81.11
2018-09-20T06:48:58.990Z,81.07
2018-09-20T06:51:29.437Z,81.21
2018-09-20T06:53:58.468Z,81.21
2018-09-20T06:56:27.620Z,81.37
2018-09-20T06:58:56.787Z,81.37
2018-09-20T07:01:25.841Z,81.40
2018-09-20T07:03:55.489Z,81.55
2018-09-20T07:06:24.708Z,81.53
2018-09-20T07:08:53.938Z,81.65
2018-09-20T07:11:23.568Z,81.68
2018-09-20T07:13:52.617Z,82.04
2018-09-20T07:16:23.327Z,81.84
2018-09-20T07:18:55.444Z,81.83
2018-09-20T07:21:24.559Z,81.71
2018-09-20T07:23:53.628Z,81.51
2018-09-20T07:26:22.778Z,81.67
2018-09-20T07:28:52.796Z,81.54
2018-09-20T07:31:21.891Z,81.56
2018-09-20T07:33:51.102Z,81.66
2018-09-20T07:36:20.613Z,81.66
2018-09-20T07:38:49.689Z,81.78
2018-09-20T07:41:19.015Z,81.92
2018-09-20T07:43:48.044Z,81.99
2018-09-20T07:46:17.117Z,82.13
2018-09-20T07:48:46.400Z,82.24
2018-09-20T07:51:16.394Z,82.36
2018-09-20T07:53:46.777Z,82.38
2018-09-20T07:56:15.930Z,82.39
2018-09-20T07:58:45.139Z,82.58
2018-09-20T08:01:14.209Z,82.53
2018-09-20T08:03:43.674Z,82.53
2018-09-20T08:06:17.232Z,82.50
2018-09-20T08:08:46.432Z,82.59
2018-09-20T08:11:17.715Z,82.72
2018-09-20T08:13:47.995Z,82.57
2018-09-20T08:16:22.547Z,82.82
2018-09-20T08:18:52.636Z,82.71
2018-09-20T08:21:21.778Z,83.00
2018-09-20T08:23:51.392Z,82.93
2018-09-20T08:26:20.449Z,83.13
2018-09-20T08:28:49.772Z,83.02
2018-09-20T08:31:19.145Z,82.67
2018-09-20T08:33:48.828Z,82.47
2018-09-20T08:36:17.852Z,82.31
2018-09-20T08:38:46.987Z,82.09
2018-09-20T08:41:16.189Z,82.22
2018-09-20T08:43:45.447Z,82.24
2018-09-20T08:46:15.371Z,81.89
2018-09-20T08:48:46.328Z,81.87
2018-09-20T08:51:15.842Z,81.98
2018-09-20T08:53:45.115Z,81.59
2018-09-20T08:56:14.926Z,81.56
2018-09-20T08:58:59.104Z,81.39
2018-09-20T09:01:29.351Z,81.40
2018-09-20T09:03:58.824Z,81.25
2018-09-20T09:09:50.823Z,81.28
2018-09-20T09:12:35.123Z,81.36
2018-09-20T09:15:24.728Z,81.25
2018-09-20T09:18:00.275Z,81.24
2018-09-20T09:20:47.647Z,81.33
2018-09-20T09:23:23.977Z,81.21
2018-09-20T09:26:05.087Z,81.25
2018-09-20T09:28:46.571Z,81.16
2018-09-20T09:31:34.468Z,81.14
2018-09-20T09:34:42.016Z,81.15
2018-09-20T09:37:39.155Z,81.15
2018-09-20T09:40:33.396Z,81.36
2018-09-20T09:43:03.856Z,81.28
2018-09-20T09:45:36.720Z,81.33
2018-09-20T09:48:07.820Z,81.18
2018-09-20T09:50:37.424Z,81.04
2018-09-20T09:53:15.078Z,81.02
2018-09-20T09:56:23.327Z,81.15
2018-09-20T09:59:13.278Z,80.97
2018-09-20T10:01:51.767Z,81.15
2018-09-20T10:04:34.153Z,81.46
2018-09-20T10:07:28.366Z,81.74
2018-09-20T10:10:18.960Z,81.90
2018-09-20T10:16:17.552Z,81.84
2018-09-20T10:19:06.705Z,81.93
2018-09-20T10:22:15.961Z,81.75
2018-09-20T10:31:03.734Z,81.82
2018-09-20T11:28:59.576Z,80.27
2018-09-20T11:34:37.050Z,80.70
2018-09-20T11:37:27.256Z,80.91
2018-09-20T11:40:10.356Z,80.98
2018-09-20T11:42:50.848Z,81.01
2018-09-20T11:45:36.634Z,80.42
2018-09-20T11:48:43.437Z,80.76
2018-09-20T11:51:22.796Z,80.44
2018-09-20T11:53:57.807Z,80.22
2018-09-20T11:56:35.558Z,79.93
2018-09-20T11:59:10.611Z,79.97
2018-09-20T12:01:43.799Z,79.85
2018-09-20T12:04:18.413Z,79.63
2018-09-20T12:07:01.321Z,79.75
2018-09-20T12:09:41.504Z,79.98
2018-09-20T12:12:17.692Z,79.75
2018-09-20T12:14:53.383Z,79.79
2018-09-20T12:17:27.338Z,79.37
2018-09-20T12:20:04.638Z,79.58
2018-09-20T12:22:41.097Z,79.70
2018-09-20T12:25:13.559Z,79.70
2018-09-20T12:27:51.233Z,79.57
2018-09-20T12:30:24.306Z,79.29
2018-09-20T12:32:58.138Z,79.56
2018-09-20T12:35:31.432Z,79.63
2018-09-20T12:38:05.589Z,79.51
2018-09-20T12:40:44.616Z,79.65
2018-09-20T12:43:15.843Z,79.43
2018-09-20T12:45:50.498Z,79.39
2018-09-20T12:48:23.243Z,79.64
2018-09-20T12:50:55.273Z,79.60
2018-09-20T12:53:29.001Z,79.62
2018-09-20T12:56:00.296Z,80.23
2018-09-20T12:58:47.789Z,80.09
2018-09-20T13:01:22.077Z,80.09
2018-09-20T13:03:53.602Z,79.55
2018-09-20T13:06:25.637Z,79.58
2018-09-20T13:08:59.847Z,79.65
2018-09-20T13:11:33.774Z,79.75
2018-09-20T13:14:05.437Z,79.12
2018-09-20T13:16:37.202Z,79.20
2018-09-20T13:19:06.930Z,79.22
2018-09-20T13:21:38.122Z,79.43
2018-09-20T13:24:10.233Z,79.80
2018-09-20T13:29:23.308Z,79.19
2018-09-20T13:31:54.635Z,79.67
2018-09-20T13:34:39.750Z,79.54
2018-09-20T13:37:12.496Z,79.54
2018-09-20T13:39:53.434Z,79.60
2018-09-20T13:42:23.043Z,79.54
2018-09-20T13:44:52.767Z,78.97
2018-09-20T13:47:41.999Z,79.09
2018-09-20T13:50:26.387Z,79.22
2018-09-20T13:53:16.006Z,79.61
2018-09-20T14:02:18.204Z,78.80
2018-09-20T14:05:06.657Z,79.26
2018-09-20T14:10:47.904Z,79.46
2018-09-20T14:14:08.753Z,79.87
2018-09-20T14:16:54.955Z,79.98
2018-09-20T14:19:51.341Z,79.90
2018-09-20T14:22:45.669Z,79.87
2018-09-20T14:28:49.645Z,79.75
2018-09-20T14:31:36.548Z,79.84
2018-09-20T16:34:33.747Z,80.59
2018-09-20T16:37:13.236Z,80.72
2018-09-20T16:39:45.757Z,80.35
2018-09-20T16:42:18.931Z,80.41
2018-09-20T16:44:48.788Z,80.43
2018-09-20T16:47:17.873Z,80.25
2018-09-20T16:49:47.044Z,80.67
2018-09-20T16:52:16.200Z,80.21
2018-09-20T16:54:45.856Z,80.71
2018-09-20T16:57:14.932Z,80.31
2018-09-20T16:59:44.377Z,80.40
2018-09-20T17:02:13.529Z,80.27
2018-09-20T17:04:42.684Z,80.49
2018-09-20T17:07:11.796Z,80.69
2018-09-20T17:09:40.855Z,80.41
2018-09-20T17:12:10.005Z,80.50
2018-09-20T17:14:39.159Z,80.57
2018-09-20T17:17:08.333Z,80.45
2018-09-20T17:19:37.416Z,80.91
2018-09-20T17:22:06.553Z,80.53
2018-09-20T17:24:36.253Z,80.66
2018-09-20T17:27:05.782Z,80.39
2018-09-20T17:29:35.074Z,81.28
2018-09-20T17:32:04.363Z,80.78
2018-09-20T17:34:33.854Z,80.96
2018-09-20T17:37:03.509Z,81.87
2018-09-20T17:39:34.551Z,81.97
2018-09-20T17:42:04.076Z,82.12
2018-09-20T17:44:34.111Z,82.59
2018-09-20T17:47:03.253Z,82.41
2018-09-20T17:49:32.541Z,82.81
2018-09-20T17:52:02.246Z,83.27
2018-09-20T17:54:31.831Z,82.84
2018-09-20T17:57:01.470Z,83.16
2018-09-20T17:59:30.751Z,83.34
2018-09-20T18:02:01.740Z,82.87
2018-09-20T18:04:31.380Z,82.77
2018-09-20T18:07:08.389Z,82.71
2018-09-20T18:09:37.921Z,82.81
2018-09-20T18:12:07.048Z,82.45
2018-09-20T18:14:36.207Z,82.83
2018-09-20T18:17:05.249Z,82.85
2018-09-20T18:19:34.300Z,82.84
2018-09-20T18:22:03.575Z,82.81
2018-09-20T18:24:33.081Z,82.90
2018-09-20T18:27:02.593Z,83.34
2018-09-20T18:29:31.789Z,83.20
2018-09-20T18:32:00.876Z,82.68
2018-09-20T18:34:30.056Z,82.84
2018-09-20T18:36:59.217Z,83.08
2018-09-20T18:39:28.430Z,82.98
2018-09-20T18:41:57.532Z,83.03
2018-09-20T18:44:26.633Z,83.20
2018-09-20T18:46:55.656Z,83.24
2018-09-20T18:49:25.625Z,83.55
2018-09-20T18:51:54.844Z,83.34
2018-09-20T18:54:23.868Z,83.38
2018-09-20T18:56:52.944Z,83.81
2018-09-20T18:59:22.515Z,83.62
2018-09-20T19:01:51.697Z,83.86
2018-09-20T19:04:20.808Z,83.85
2018-09-20T19:06:49.854Z,83.99
2018-09-20T19:09:18.952Z,83.79
2018-09-20T19:11:48.002Z,84.28
2018-09-20T19:14:17.382Z,84.01
2018-09-20T19:16:46.582Z,84.14
2018-09-20T19:19:15.702Z,83.97
2018-09-20T19:21:45.089Z,83.84
2018-09-20T19:24:14.180Z,83.73
2018-09-20T19:26:43.373Z,83.52
2018-09-20T19:29:24.736Z,83.64
2018-09-20T19:31:53.939Z,83.57
2018-09-20T19:34:22.986Z,83.72
2018-09-20T19:36:52.864Z,83.74
2018-09-20T19:39:22.919Z,83.68
2018-09-20T19:41:53.037Z,83.41
2018-09-20T19:44:22.119Z,83.84
2018-09-20T19:46:51.336Z,83.52
2018-09-20T19:49:20.561Z,83.51
2018-09-20T19:51:49.802Z,83.43
2018-09-20T19:54:18.912Z,83.27
2018-09-20T19:56:48.152Z,83.46
2018-09-20T19:59:17.227Z,83.62
2018-09-20T20:01:46.470Z,83.70
2018-09-20T20:04:15.530Z,84.11
2018-09-20T20:06:44.895Z,83.98
2018-09-20T20:09:14.750Z,84.39
2018-09-20T20:11:44.332Z,84.09
2018-09-20T20:14:13.864Z,84.82
2018-09-20T20:16:43.238Z,84.69
2018-09-20T20:19:12.425Z,84.83
2018-09-20T20:21:41.539Z,84.95
2018-09-20T20:24:10.552Z,84.64
2018-09-20T20:26:39.570Z,84.93
2018-09-20T20:29:09.051Z,84.53
2018-09-20T20:31:39.689Z,84.81
2018-09-20T20:34:08.780Z,84.56
2018-09-20T20:36:37.856Z,84.54
2018-09-20T20:39:09.204Z,84.72
2018-09-20T20:41:38.319Z,84.54
2018-09-20T20:44:07.765Z,84.36
2018-09-20T20:46:36.825Z,84.44
2018-09-20T20:49:06.104Z,84.23
2018-09-20T20:51:35.420Z,84.27
2018-09-20T20:54:04.629Z,83.96
2018-09-20T20:56:34.296Z,83.63
2018-09-20T20:59:03.548Z,83.90
2018-09-20T21:01:32.600Z,83.96
2018-09-20T21:04:01.635Z,83.94
2018-09-20T21:06:30.923Z,84.04
2018-09-20T21:09:00.006Z,83.79
2018-09-20T21:11:29.045Z,83.79
2018-09-20T21:13:58.464Z,83.72
2018-09-20T21:16:27.738Z,83.86
2018-09-20T21:18:56.941Z,83.52
2018-09-20T21:21:26.042Z,83.31
2018-09-20T21:23:55.087Z,83.50
2018-09-20T21:26:24.528Z,83.18
2018-09-20T21:28:53.620Z,82.73
2018-09-20T21:31:22.708Z,82.85
2018-09-20T21:33:51.875Z,82.54
2018-09-20T21:36:21.160Z,81.97
2018-09-20T21:38:50.281Z,81.82
2018-09-20T21:41:19.494Z,81.41
2018-09-20T21:43:48.590Z,81.41
2018-09-20T21:46:17.742Z,81.20
2018-09-20T21:48:46.765Z,80.65
2018-09-20T21:51:15.855Z,80.09
2018-09-20T21:53:44.988Z,79.83
2018-09-20T21:56:14.694Z,79.37
2018-09-20T21:58:43.886Z,79.54
2018-09-20T22:01:14.317Z,79.10
2018-09-20T22:03:44.243Z,79.18
2018-09-20T22:06:13.333Z,79.04
2018-09-20T22:08:42.567Z,78.79
2018-09-20T22:11:11.658Z,78.68
2018-09-20T22:13:40.788Z,78.47
2018-09-20T22:16:09.930Z,78.63
2018-09-20T22:18:55.596Z,78.45
2018-09-20T22:21:25.009Z,77.67
2018-09-20T22:24:12.860Z,77.45
2018-09-20T22:26:54.791Z,77.12
2018-09-20T22:29:39.894Z,77.18
2018-09-20T22:32:16.861Z,77.42
2018-09-20T22:34:46.061Z,77.26
2018-09-20T22:37:29.135Z,76.95
2018-09-20T22:40:16.682Z,76.47
2018-09-20T22:43:00.573Z,76.35
2018-09-20T22:45:45.740Z,75.89
2018-09-20T22:48:15.105Z,75.57
2018-09-20T22:51:02.703Z,75.71
2018-09-20T22:53:43.774Z,75.83
2018-09-20T22:56:24.116Z,76.06
2018-09-20T22:58:53.492Z,76.02
2018-09-20T23:01:26.479Z,76.00
2018-09-20T23:04:14.881Z,75.76
2018-09-20T23:06:59.055Z,75.80
2018-09-20T23:09:44.023Z,75.61
2018-09-20T23:12:28.307Z,75.23
2018-09-20T23:14:57.356Z,75.00
2018-09-20T23:17:26.795Z,74.96
2018-09-20T23:19:55.836Z,74.63
2018-09-20T23:22:24.878Z,74.74
2018-09-20T23:24:53.957Z,74.59
2018-09-20T23:27:23.178Z,74.34
2018-09-20T23:29:52.400Z,74.40
2018-09-20T23:32:21.578Z,74.07
2018-09-20T23:34:50.682Z,74.15
2018-09-20T23:37:19.866Z,73.96
2018-09-20T23:39:48.961Z,73.88
2018-09-20T23:42:18.044Z,73.49
2018-09-20T23:44:47.163Z,73.54
2018-09-20T23:47:16.278Z,73.37
2018-09-20T23:49:45.433Z,73.42
2018-09-20T23:52:14.533Z,73.30
2018-09-20T23:54:43.654Z,73.26
2018-09-20T23:57:12.723Z,73.18
2018-09-20T23:59:41.756Z,73.24
